sensor_id;sensor_type;location;lat;lon;timestamp;P1;durP1;ratioP1;P2;durP2;ratioP2
83732;SDS011;73710;49.968;8.338;2024-01-06T05:02:02;1.30;;;0.73;;
83732;SDS011;73710;49.968;8.338;2024-01-06T05:04:27;1.20;;;0.70;;
83732;SDS011;73710;49.968;8.338;2024-01-06T05:06:53;1.23;;;0.85;;
83732;SDS011;73710;49.968;8.338;2024-01-06T05:09:19;3.00;;;1.25;;
83732;SDS011;73710;49.968;8.338;2024-01-06T05:11:45;4.75;;;1.02;;
83732;SDS011;73710;49.968;8.338;2024-01-06T05:14:10;2.83;;;1.27;;
83732;SDS011;73710;49.968;8.338;2024-01-06T05:16:36;1.45;;;0.90;;
83732;SDS011;73710;49.968;8.338;2024-01-06T05:19:01;4.97;;;1.38;;
83732;SDS011;73710;49.968;8.338;2024-01-06T05:21:27;0.60;;;0.57;;
83732;SDS011;73710;49.968;8.338;2024-01-06T05:23:53;2.97;;;1.25;;
83732;SDS011;73710;49.968;8.338;2024-01-06T05:26:18;4.97;;;0.93;;
83732;SDS011;73710;49.968;8.338;2024-01-06T05:28:43;2.63;;;1.23;;
83732;SDS011;73710;49.968;8.338;2024-01-06T05:31:09;4.43;;;1.13;;
83732;SDS011;73710;49.968;8.338;2024-01-06T05:33:34;1.87;;;1.07;;
83732;SDS011;73710;49.968;8.338;2024-01-06T05:35:59;2.10;;;1.10;;
83732;SDS011;73710;49.968;8.338;2024-01-06T05:38:25;1.38;;;1.13;;
83732;SDS011;73710;49.968;8.338;2024-01-06T05:40:50;2.63;;;1.13;;
83732;SDS011;73710;49.968;8.338;2024-01-06T05:43:15;4.43;;;0.90;;
83732;SDS011;73710;49.968;8.338;2024-01-06T05:45:41;1.80;;;1.13;;
83732;SDS011;73710;49.968;8.338;2024-01-06T05:48:10;1.65;;;1.20;;
83732;SDS011;73710;49.968;8.338;2024-01-06T05:50:39;1.48;;;0.90;;
83732;SDS011;73710;49.968;8.338;2024-01-06T05:53:05;7.05;;;1.33;;
83732;SDS011;73710;49.968;8.338;2024-01-06T05:55:30;4.85;;;1.77;;
83732;SDS011;73710;49.968;8.338;2024-01-06T05:57:56;2.00;;;0.70;;
83732;SDS011;73710;49.968;8.338;2024-01-06T06:00:21;3.70;;;1.23;;
83732;SDS011;73710;49.968;8.338;2024-01-06T06:02:46;2.83;;;1.10;;
83732;SDS011;73710;49.968;8.338;2024-01-06T06:05:12;2.57;;;0.70;;
83732;SDS011;73710;49.968;8.338;2024-01-06T06:07:38;2.03;;;1.08;;
83732;SDS011;73710;49.968;8.338;2024-01-06T06:10:07;2.47;;;1.13;;
83732;SDS011;73710;49.968;8.338;2024-01-06T06:12:34;1.10;;;0.82;;
83732;SDS011;73710;49.968;8.338;2024-01-06T06:14:59;2.17;;;1.42;;
83732;SDS011;73710;49.968;8.338;2024-01-06T06:17:25;1.38;;;1.02;;
83732;SDS011;73710;49.968;8.338;2024-01-06T06:19:51;2.40;;;1.00;;
83732;SDS011;73710;49.968;8.338;2024-01-06T06:22:16;4.25;;;1.15;;
83732;SDS011;73710;49.968;8.338;2024-01-06T06:24:41;4.45;;;1.10;;
83732;SDS011;73710;49.968;8.338;2024-01-06T06:27:08;1.42;;;0.80;;
83732;SDS011;73710;49.968;8.338;2024-01-06T06:29:33;2.60;;;1.38;;
83732;SDS011;73710;49.968;8.338;2024-01-06T06:31:59;3.78;;;1.33;;
83732;SDS011;73710;49.968;8.338;2024-01-06T06:34:24;1.20;;;0.87;;
83732;SDS011;73710;49.968;8.338;2024-01-06T06:36:50;2.63;;;1.07;;
83732;SDS011;73710;49.968;8.338;2024-01-06T06:39:15;3.90;;;1.13;;
83732;SDS011;73710;49.968;8.338;2024-01-06T06:41:40;1.45;;;0.85;;
83732;SDS011;73710;49.968;8.338;2024-01-06T06:44:06;1.63;;;0.67;;
83732;SDS011;73710;49.968;8.338;2024-01-06T06:46:31;2.87;;;1.30;;
83732;SDS011;73710;49.968;8.338;2024-01-06T06:48:56;1.20;;;0.67;;
83732;SDS011;73710;49.968;8.338;2024-01-06T06:51:22;1.30;;;0.60;;
83732;SDS011;73710;49.968;8.338;2024-01-06T06:53:50;1.52;;;0.90;;
83732;SDS011;73710;49.968;8.338;2024-01-06T06:56:15;3.00;;;1.42;;
83732;SDS011;73710;49.968;8.338;2024-01-06T06:58:42;4.18;;;0.73;;
83732;SDS011;73710;49.968;8.338;2024-01-06T07:01:08;0.75;;;0.52;;
83732;SDS011;73710;49.968;8.338;2024-01-06T07:03:33;2.88;;;1.10;;
83732;SDS011;73710;49.968;8.338;2024-01-06T07:05:58;2.20;;;0.68;;
83732;SDS011;73710;49.968;8.338;2024-01-06T07:08:24;2.07;;;1.30;;
83732;SDS011;73710;49.968;8.338;2024-01-06T07:10:49;1.87;;;0.87;;
83732;SDS011;73710;49.968;8.338;2024-01-06T07:13:14;2.22;;;1.35;;
83732;SDS011;73710;49.968;8.338;2024-01-06T07:15:40;2.15;;;0.98;;
83732;SDS011;73710;49.968;8.338;2024-01-06T07:18:06;1.70;;;0.70;;
83732;SDS011;73710;49.968;8.338;2024-01-06T07:20:32;3.08;;;0.93;;
83732;SDS011;73710;49.968;8.338;2024-01-06T07:22:57;2.15;;;0.93;;
83732;SDS011;73710;49.968;8.338;2024-01-06T07:25:22;2.60;;;1.00;;
83732;SDS011;73710;49.968;8.338;2024-01-06T07:27:48;1.67;;;0.90;;
83732;SDS011;73710;49.968;8.338;2024-01-06T07:30:13;1.23;;;0.70;;
83732;SDS011;73710;49.968;8.338;2024-01-06T07:32:39;1.55;;;1.23;;
83732;SDS011;73710;49.968;8.338;2024-01-06T07:35:04;0.90;;;0.60;;
83732;SDS011;73710;49.968;8.338;2024-01-06T07:37:30;1.23;;;0.88;;
83732;SDS011;73710;49.968;8.338;2024-01-06T07:39:55;1.05;;;0.68;;
83732;SDS011;73710;49.968;8.338;2024-01-06T07:42:20;2.80;;;0.57;;
83732;SDS011;73710;49.968;8.338;2024-01-06T07:44:47;1.85;;;1.00;;
83732;SDS011;73710;49.968;8.338;2024-01-06T07:47:12;2.13;;;0.93;;
83732;SDS011;73710;49.968;8.338;2024-01-06T07:49:37;1.85;;;1.15;;
83732;SDS011;73710;49.968;8.338;2024-01-06T07:52:03;2.70;;;1.60;;
83732;SDS011;73710;49.968;8.338;2024-01-06T07:54:29;2.20;;;0.82;;
83732;SDS011;73710;49.968;8.338;2024-01-06T07:56:55;1.20;;;0.70;;
83732;SDS011;73710;49.968;8.338;2024-01-06T07:59:20;1.90;;;0.83;;
83732;SDS011;73710;49.968;8.338;2024-01-06T08:01:46;4.60;;;1.17;;
83732;SDS011;73710;49.968;8.338;2024-01-06T08:04:11;0.77;;;0.60;;
83732;SDS011;73710;49.968;8.338;2024-01-06T08:06:36;1.45;;;1.02;;
83732;SDS011;73710;49.968;8.338;2024-01-06T08:09:02;3.78;;;0.93;;
83732;SDS011;73710;49.968;8.338;2024-01-06T08:11:28;3.05;;;1.35;;
83732;SDS011;73710;49.968;8.338;2024-01-06T08:13:54;2.75;;;1.48;;
83732;SDS011;73710;49.968;8.338;2024-01-06T08:16:19;2.80;;;1.40;;
83732;SDS011;73710;49.968;8.338;2024-01-06T08:18:45;2.30;;;1.13;;
83732;SDS011;73710;49.968;8.338;2024-01-06T08:21:10;2.30;;;1.10;;
83732;SDS011;73710;49.968;8.338;2024-01-06T08:23:36;2.20;;;1.50;;
83732;SDS011;73710;49.968;8.338;2024-01-06T08:26:02;3.42;;;1.67;;
83732;SDS011;73710;49.968;8.338;2024-01-06T08:28:27;1.20;;;0.80;;
83732;SDS011;73710;49.968;8.338;2024-01-06T08:30:52;1.60;;;1.05;;
83732;SDS011;73710;49.968;8.338;2024-01-06T08:33:18;2.92;;;1.42;;
83732;SDS011;73710;49.968;8.338;2024-01-06T08:35:44;1.90;;;1.23;;
83732;SDS011;73710;49.968;8.338;2024-01-06T08:38:09;2.47;;;1.13;;
83732;SDS011;73710;49.968;8.338;2024-01-06T08:40:35;1.97;;;1.40;;
83732;SDS011;73710;49.968;8.338;2024-01-06T08:43:01;1.83;;;1.13;;
83732;SDS011;73710;49.968;8.338;2024-01-06T08:45:26;1.95;;;1.10;;
83732;SDS011;73710;49.968;8.338;2024-01-06T08:47:52;3.78;;;1.40;;
83732;SDS011;73710;49.968;8.338;2024-01-06T08:50:17;3.80;;;1.63;;
83732;SDS011;73710;49.968;8.338;2024-01-06T08:52:43;4.18;;;1.70;;
83732;SDS011;73710;49.968;8.338;2024-01-06T08:55:08;2.22;;;1.60;;
83732;SDS011;73710;49.968;8.338;2024-01-06T08:57:33;3.17;;;1.52;;
83732;SDS011;73710;49.968;8.338;2024-01-06T08:59:59;4.10;;;2.30;;
83732;SDS011;73710;49.968;8.338;2024-01-06T09:02:24;7.80;;;3.17;;
83732;SDS011;73710;49.968;8.338;2024-01-06T09:04:49;4.45;;;1.38;;
83732;SDS011;73710;49.968;8.338;2024-01-06T09:07:15;2.87;;;1.50;;
83732;SDS011;73710;49.968;8.338;2024-01-06T09:09:42;2.30;;;1.80;;
83732;SDS011;73710;49.968;8.338;2024-01-06T09:12:07;3.50;;;1.42;;
83732;SDS011;73710;49.968;8.338;2024-01-06T09:14:33;3.75;;;1.65;;
83732;SDS011;73710;49.968;8.338;2024-01-06T09:16:58;2.37;;;1.30;;
83732;SDS011;73710;49.968;8.338;2024-01-06T09:19:24;2.20;;;1.27;;
83732;SDS011;73710;49.968;8.338;2024-01-06T09:21:49;3.67;;;1.83;;
83732;SDS011;73710;49.968;8.338;2024-01-06T09:24:14;2.75;;;1.88;;
83732;SDS011;73710;49.968;8.338;2024-01-06T09:26:40;5.05;;;2.05;;
83732;SDS011;73710;49.968;8.338;2024-01-06T09:29:05;7.38;;;1.67;;
83732;SDS011;73710;49.968;8.338;2024-01-06T09:31:31;4.63;;;1.63;;
83732;SDS011;73710;49.968;8.338;2024-01-06T09:33:59;1.88;;;1.33;;
83732;SDS011;73710;49.968;8.338;2024-01-06T09:36:27;6.50;;;1.95;;
83732;SDS011;73710;49.968;8.338;2024-01-06T09:38:53;3.53;;;1.55;;
83732;SDS011;73710;49.968;8.338;2024-01-06T09:41:18;2.70;;;1.10;;
83732;SDS011;73710;49.968;8.338;2024-01-06T09:43:43;1.42;;;0.93;;
83732;SDS011;73710;49.968;8.338;2024-01-06T09:48:35;5.83;;;1.63;;
83732;SDS011;73710;49.968;8.338;2024-01-06T09:51:06;2.03;;;1.30;;
83732;SDS011;73710;49.968;8.338;2024-01-06T09:53:36;2.50;;;1.58;;
83732;SDS011;73710;49.968;8.338;2024-01-06T09:56:08;1.95;;;1.50;;
83732;SDS011;73710;49.968;8.338;2024-01-06T09:58:34;2.65;;;1.63;;
83732;SDS011;73710;49.968;8.338;2024-01-06T10:01:02;1.80;;;1.35;;
83732;SDS011;73710;49.968;8.338;2024-01-06T10:03:28;8.63;;;1.25;;
83732;SDS011;73710;49.968;8.338;2024-01-06T10:05:53;3.67;;;1.38;;
83732;SDS011;73710;49.968;8.338;2024-01-06T10:08:19;6.03;;;2.10;;
83732;SDS011;73710;49.968;8.338;2024-01-06T10:10:44;4.63;;;1.27;;
83732;SDS011;73710;49.968;8.338;2024-01-06T10:13:10;2.30;;;1.77;;
83732;SDS011;73710;49.968;8.338;2024-01-06T10:15:35;4.40;;;1.73;;
83732;SDS011;73710;49.968;8.338;2024-01-06T10:18:01;8.13;;;2.15;;
83732;SDS011;73710;49.968;8.338;2024-01-06T10:20:28;8.30;;;3.45;;
83732;SDS011;73710;49.968;8.338;2024-01-06T10:22:54;5.55;;;2.03;;
83732;SDS011;73710;49.968;8.338;2024-01-06T10:25:21;3.92;;;2.70;;
83732;SDS011;73710;49.968;8.338;2024-01-06T10:27:48;4.82;;;1.83;;
83732;SDS011;73710;49.968;8.338;2024-01-06T10:30:14;2.97;;;1.63;;
83732;SDS011;73710;49.968;8.338;2024-01-06T10:32:43;2.75;;;1.85;;
83732;SDS011;73710;49.968;8.338;2024-01-06T10:35:09;6.35;;;2.13;;
83732;SDS011;73710;49.968;8.338;2024-01-06T10:37:34;3.33;;;1.90;;
83732;SDS011;73710;49.968;8.338;2024-01-06T10:42:40;2.58;;;1.52;;
83732;SDS011;73710;49.968;8.338;2024-01-06T10:45:07;3.65;;;1.98;;
83732;SDS011;73710;49.968;8.338;2024-01-06T10:47:35;7.15;;;2.28;;
83732;SDS011;73710;49.968;8.338;2024-01-06T10:50:04;2.60;;;1.92;;
83732;SDS011;73710;49.968;8.338;2024-01-06T10:52:30;2.97;;;1.73;;
83732;SDS011;73710;49.968;8.338;2024-01-06T10:54:56;4.68;;;2.88;;
83732;SDS011;73710;49.968;8.338;2024-01-06T10:57:23;7.63;;;3.83;;
83732;SDS011;73710;49.968;8.338;2024-01-06T10:59:49;9.35;;;2.75;;
83732;SDS011;73710;49.968;8.338;2024-01-06T11:02:16;6.50;;;3.38;;
83732;SDS011;73710;49.968;8.338;2024-01-06T11:04:43;4.03;;;1.92;;
83732;SDS011;73710;49.968;8.338;2024-01-06T11:07:10;8.57;;;2.83;;
83732;SDS011;73710;49.968;8.338;2024-01-06T11:09:37;3.50;;;1.40;;
83732;SDS011;73710;49.968;8.338;2024-01-06T11:12:06;2.53;;;1.65;;
83732;SDS011;73710;49.968;8.338;2024-01-06T11:14:36;5.38;;;1.92;;
83732;SDS011;73710;49.968;8.338;2024-01-06T11:17:02;2.63;;;1.75;;
83732;SDS011;73710;49.968;8.338;2024-01-06T11:25:05;3.67;;;2.00;;
83732;SDS011;73710;49.968;8.338;2024-01-06T11:27:32;2.17;;;1.40;;
83732;SDS011;73710;49.968;8.338;2024-01-06T11:29:59;3.15;;;2.78;;
83732;SDS011;73710;49.968;8.338;2024-01-06T11:32:30;2.30;;;1.15;;
83732;SDS011;73710;49.968;8.338;2024-01-06T11:35:07;4.07;;;2.38;;
83732;SDS011;73710;49.968;8.338;2024-01-06T11:37:35;2.88;;;2.30;;
83732;SDS011;73710;49.968;8.338;2024-01-06T11:40:08;3.00;;;2.13;;
83732;SDS011;73710;49.968;8.338;2024-01-06T11:42:45;10.40;;;3.88;;
83732;SDS011;73710;49.968;8.338;2024-01-06T11:45:12;3.25;;;1.90;;
83732;SDS011;73710;49.968;8.338;2024-01-06T11:47:38;3.15;;;1.45;;
83732;SDS011;73710;49.968;8.338;2024-01-06T11:50:04;6.72;;;1.75;;
83732;SDS011;73710;49.968;8.338;2024-01-06T11:52:33;2.65;;;1.52;;
83732;SDS011;73710;49.968;8.338;2024-01-06T11:55:00;6.63;;;2.03;;
83732;SDS011;73710;49.968;8.338;2024-01-06T11:57:26;4.32;;;2.00;;
83732;SDS011;73710;49.968;8.338;2024-01-06T11:59:52;4.20;;;1.80;;
83732;SDS011;73710;49.968;8.338;2024-01-06T12:02:18;2.72;;;1.42;;
83732;SDS011;73710;49.968;8.338;2024-01-06T12:05:02;5.50;;;1.48;;
83732;SDS011;73710;49.968;8.338;2024-01-06T12:07:28;3.30;;;2.22;;
83732;SDS011;73710;49.968;8.338;2024-01-06T12:10:02;2.80;;;1.27;;
83732;SDS011;73710;49.968;8.338;2024-01-06T12:12:28;5.28;;;2.25;;
83732;SDS011;73710;49.968;8.338;2024-01-06T12:14:54;6.53;;;1.85;;
83732;SDS011;73710;49.968;8.338;2024-01-06T12:17:20;3.27;;;1.33;;
83732;SDS011;73710;49.968;8.338;2024-01-06T12:19:47;2.35;;;1.63;;
83732;SDS011;73710;49.968;8.338;2024-01-06T12:22:13;5.00;;;2.10;;
83732;SDS011;73710;49.968;8.338;2024-01-06T12:24:39;2.60;;;1.60;;
83732;SDS011;73710;49.968;8.338;2024-01-06T12:27:06;7.47;;;1.83;;
83732;SDS011;73710;49.968;8.338;2024-01-06T12:29:34;5.10;;;2.10;;
83732;SDS011;73710;49.968;8.338;2024-01-06T12:32:03;4.65;;;2.13;;
83732;SDS011;73710;49.968;8.338;2024-01-06T12:34:28;3.78;;;2.30;;
83732;SDS011;73710;49.968;8.338;2024-01-06T12:36:54;3.78;;;2.42;;
83732;SDS011;73710;49.968;8.338;2024-01-06T12:39:23;2.67;;;1.80;;
83732;SDS011;73710;49.968;8.338;2024-01-06T12:41:52;4.28;;;2.63;;
83732;SDS011;73710;49.968;8.338;2024-01-06T12:44:18;7.50;;;2.45;;
83732;SDS011;73710;49.968;8.338;2024-01-06T12:46:44;4.83;;;2.30;;
83732;SDS011;73710;49.968;8.338;2024-01-06T12:49:09;5.80;;;1.88;;
83732;SDS011;73710;49.968;8.338;2024-01-06T12:51:35;3.20;;;1.57;;
83732;SDS011;73710;49.968;8.338;2024-01-06T12:54:00;4.87;;;2.43;;
83732;SDS011;73710;49.968;8.338;2024-01-06T12:56:25;3.10;;;1.93;;
83732;SDS011;73710;49.968;8.338;2024-01-06T12:58:51;7.90;;;2.22;;
83732;SDS011;73710;49.968;8.338;2024-01-06T13:01:17;6.55;;;2.38;;
83732;SDS011;73710;49.968;8.338;2024-01-06T13:03:42;3.60;;;1.80;;
83732;SDS011;73710;49.968;8.338;2024-01-06T13:06:08;3.47;;;2.33;;
83732;SDS011;73710;49.968;8.338;2024-01-06T13:08:34;8.43;;;2.72;;
83732;SDS011;73710;49.968;8.338;2024-01-06T13:10:59;6.15;;;3.03;;
83732;SDS011;73710;49.968;8.338;2024-01-06T13:13:25;3.17;;;1.90;;
83732;SDS011;73710;49.968;8.338;2024-01-06T13:15:50;7.22;;;2.22;;
83732;SDS011;73710;49.968;8.338;2024-01-06T13:18:15;5.53;;;2.43;;
83732;SDS011;73710;49.968;8.338;2024-01-06T13:20:42;4.57;;;1.98;;
83732;SDS011;73710;49.968;8.338;2024-01-06T13:23:08;7.03;;;2.85;;
83732;SDS011;73710;49.968;8.338;2024-01-06T13:25:37;5.78;;;2.40;;
83732;SDS011;73710;49.968;8.338;2024-01-06T13:28:06;5.03;;;2.53;;
83732;SDS011;73710;49.968;8.338;2024-01-06T13:30:32;2.38;;;1.63;;
83732;SDS011;73710;49.968;8.338;2024-01-06T13:32:57;3.03;;;1.70;;
83732;SDS011;73710;49.968;8.338;2024-01-06T13:35:24;4.80;;;2.85;;
83732;SDS011;73710;49.968;8.338;2024-01-06T13:37:54;13.73;;;2.58;;
83732;SDS011;73710;49.968;8.338;2024-01-06T13:40:20;6.13;;;1.85;;
83732;SDS011;73710;49.968;8.338;2024-01-06T13:42:47;4.22;;;2.20;;
83732;SDS011;73710;49.968;8.338;2024-01-06T13:45:13;4.45;;;2.83;;
83732;SDS011;73710;49.968;8.338;2024-01-06T13:47:39;5.10;;;3.08;;
83732;SDS011;73710;49.968;8.338;2024-01-06T13:50:09;2.60;;;1.75;;
83732;SDS011;73710;49.968;8.338;2024-01-06T13:52:36;5.65;;;2.35;;
83732;SDS011;73710;49.968;8.338;2024-01-06T13:55:02;3.42;;;1.98;;
83732;SDS011;73710;49.968;8.338;2024-01-06T13:57:28;4.07;;;2.33;;
83732;SDS011;73710;49.968;8.338;2024-01-06T13:59:53;7.22;;;2.25;;
83732;SDS011;73710;49.968;8.338;2024-01-06T14:02:18;4.22;;;2.63;;
83732;SDS011;73710;49.968;8.338;2024-01-06T14:04:44;7.35;;;3.08;;
83732;SDS011;73710;49.968;8.338;2024-01-06T14:07:09;4.38;;;2.40;;
83732;SDS011;73710;49.968;8.338;2024-01-06T14:09:35;3.50;;;1.95;;
83732;SDS011;73710;49.968;8.338;2024-01-06T14:12:01;3.25;;;1.88;;
83732;SDS011;73710;49.968;8.338;2024-01-06T14:14:26;7.75;;;2.05;;
83732;SDS011;73710;49.968;8.338;2024-01-06T14:16:51;3.63;;;1.83;;
83732;SDS011;73710;49.968;8.338;2024-01-06T14:19:17;4.05;;;2.13;;
83732;SDS011;73710;49.968;8.338;2024-01-06T14:21:42;4.47;;;2.23;;
83732;SDS011;73710;49.968;8.338;2024-01-06T14:24:08;5.40;;;3.03;;
83732;SDS011;73710;49.968;8.338;2024-01-06T14:26:33;5.27;;;2.83;;
83732;SDS011;73710;49.968;8.338;2024-01-06T14:28:58;4.57;;;2.13;;
83732;SDS011;73710;49.968;8.338;2024-01-06T14:31:24;7.35;;;2.78;;
83732;SDS011;73710;49.968;8.338;2024-01-06T14:33:50;4.78;;;2.58;;
83732;SDS011;73710;49.968;8.338;2024-01-06T14:36:15;6.53;;;3.23;;
83732;SDS011;73710;49.968;8.338;2024-01-06T14:38:40;4.57;;;1.83;;
83732;SDS011;73710;49.968;8.338;2024-01-06T14:41:06;5.30;;;2.63;;
83732;SDS011;73710;49.968;8.338;2024-01-06T14:43:31;6.23;;;2.70;;
83732;SDS011;73710;49.968;8.338;2024-01-06T14:45:57;7.40;;;3.35;;
83732;SDS011;73710;49.968;8.338;2024-01-06T14:48:22;4.22;;;2.17;;
83732;SDS011;73710;49.968;8.338;2024-01-06T14:50:47;2.83;;;1.77;;
83732;SDS011;73710;49.968;8.338;2024-01-06T14:53:14;5.65;;;2.40;;
83732;SDS011;73710;49.968;8.338;2024-01-06T14:55:40;5.40;;;3.00;;
83732;SDS011;73710;49.968;8.338;2024-01-06T14:58:05;4.45;;;2.90;;
83732;SDS011;73710;49.968;8.338;2024-01-06T15:00:31;4.13;;;2.33;;
83732;SDS011;73710;49.968;8.338;2024-01-06T15:02:56;3.43;;;2.10;;
83732;SDS011;73710;49.968;8.338;2024-01-06T15:05:22;7.43;;;2.55;;
83732;SDS011;73710;49.968;8.338;2024-01-06T15:07:48;4.15;;;1.92;;
83732;SDS011;73710;49.968;8.338;2024-01-06T15:10:13;6.30;;;2.55;;
83732;SDS011;73710;49.968;8.338;2024-01-06T15:12:40;5.82;;;2.95;;
83732;SDS011;73710;49.968;8.338;2024-01-06T15:15:06;4.30;;;3.00;;
83732;SDS011;73710;49.968;8.338;2024-01-06T15:17:33;4.00;;;1.75;;
83732;SDS011;73710;49.968;8.338;2024-01-06T15:19:59;5.47;;;1.95;;
83732;SDS011;73710;49.968;8.338;2024-01-06T15:22:24;6.07;;;2.25;;
83732;SDS011;73710;49.968;8.338;2024-01-06T15:24:50;5.32;;;2.55;;
83732;SDS011;73710;49.968;8.338;2024-01-06T15:27:16;6.57;;;3.13;;
83732;SDS011;73710;49.968;8.338;2024-01-06T15:29:42;4.05;;;3.03;;
83732;SDS011;73710;49.968;8.338;2024-01-06T15:32:07;7.68;;;3.35;;
83732;SDS011;73710;49.968;8.338;2024-01-06T15:34:33;6.55;;;3.17;;
83732;SDS011;73710;49.968;8.338;2024-01-06T15:36:58;5.80;;;3.17;;
83732;SDS011;73710;49.968;8.338;2024-01-06T15:39:24;7.03;;;2.97;;
83732;SDS011;73710;49.968;8.338;2024-01-06T15:41:49;6.72;;;3.42;;
83732;SDS011;73710;49.968;8.338;2024-01-06T15:44:17;6.47;;;3.45;;
83732;SDS011;73710;49.968;8.338;2024-01-06T15:46:42;7.03;;;3.38;;
83732;SDS011;73710;49.968;8.338;2024-01-06T15:49:08;3.90;;;1.80;;
83732;SDS011;73710;49.968;8.338;2024-01-06T15:51:33;5.20;;;2.88;;
83732;SDS011;73710;49.968;8.338;2024-01-06T15:53:59;3.53;;;1.90;;
83732;SDS011;73710;49.968;8.338;2024-01-06T15:56:24;4.28;;;1.75;;
83732;SDS011;73710;49.968;8.338;2024-01-06T15:58:50;4.50;;;1.90;;
83732;SDS011;73710;49.968;8.338;2024-01-06T16:01:19;3.83;;;2.15;;
83732;SDS011;73710;49.968;8.338;2024-01-06T16:03:44;4.50;;;2.22;;
83732;SDS011;73710;49.968;8.338;2024-01-06T16:06:10;3.60;;;2.57;;
83732;SDS011;73710;49.968;8.338;2024-01-06T16:08:35;2.78;;;2.05;;
83732;SDS011;73710;49.968;8.338;2024-01-06T16:11:00;4.53;;;2.80;;
83732;SDS011;73710;49.968;8.338;2024-01-06T16:13:26;3.50;;;2.30;;
83732;SDS011;73710;49.968;8.338;2024-01-06T16:15:52;5.65;;;2.35;;
83732;SDS011;73710;49.968;8.338;2024-01-06T16:18:19;6.00;;;2.50;;
83732;SDS011;73710;49.968;8.338;2024-01-06T16:20:45;3.35;;;2.08;;
83732;SDS011;73710;49.968;8.338;2024-01-06T16:23:13;6.63;;;2.80;;
83732;SDS011;73710;49.968;8.338;2024-01-06T16:25:42;2.80;;;1.70;;
83732;SDS011;73710;49.968;8.338;2024-01-06T16:28:08;4.03;;;1.83;;
83732;SDS011;73710;49.968;8.338;2024-01-06T16:30:37;5.18;;;2.17;;
83732;SDS011;73710;49.968;8.338;2024-01-06T16:33:03;3.22;;;1.85;;
83732;SDS011;73710;49.968;8.338;2024-01-06T16:35:30;4.20;;;2.45;;
83732;SDS011;73710;49.968;8.338;2024-01-06T16:37:55;6.05;;;2.45;;
83732;SDS011;73710;49.968;8.338;2024-01-06T16:40:22;3.63;;;1.88;;
83732;SDS011;73710;49.968;8.338;2024-01-06T16:42:48;2.55;;;1.33;;
83732;SDS011;73710;49.968;8.338;2024-01-06T16:45:17;2.97;;;1.30;;
83732;SDS011;73710;49.968;8.338;2024-01-06T16:47:42;3.88;;;1.70;;
83732;SDS011;73710;49.968;8.338;2024-01-06T16:50:08;4.32;;;1.85;;
83732;SDS011;73710;49.968;8.338;2024-01-06T16:52:33;3.50;;;2.20;;
83732;SDS011;73710;49.968;8.338;2024-01-06T16:54:59;4.35;;;2.83;;
83732;SDS011;73710;49.968;8.338;2024-01-06T16:57:25;4.65;;;2.22;;
83732;SDS011;73710;49.968;8.338;2024-01-06T16:59:53;4.95;;;1.98;;
83732;SDS011;73710;49.968;8.338;2024-01-06T17:02:19;5.22;;;1.85;;
83732;SDS011;73710;49.968;8.338;2024-01-06T17:04:44;4.60;;;2.30;;
83732;SDS011;73710;49.968;8.338;2024-01-06T17:07:09;4.33;;;1.63;;
83732;SDS011;73710;49.968;8.338;2024-01-06T17:09:35;2.72;;;1.77;;
83732;SDS011;73710;49.968;8.338;2024-01-06T17:12:01;2.80;;;2.00;;
83732;SDS011;73710;49.968;8.338;2024-01-06T17:14:26;7.90;;;2.17;;
83732;SDS011;73710;49.968;8.338;2024-01-06T17:16:52;5.03;;;2.43;;
83732;SDS011;73710;49.968;8.338;2024-01-06T17:19:17;4.07;;;2.23;;
83732;SDS011;73710;49.968;8.338;2024-01-06T17:21:44;4.50;;;2.90;;
83732;SDS011;73710;49.968;8.338;2024-01-06T17:24:10;6.22;;;3.30;;
83732;SDS011;73710;49.968;8.338;2024-01-06T17:26:35;6.27;;;4.47;;
83732;SDS011;73710;49.968;8.338;2024-01-06T17:29:00;2.95;;;1.83;;
83732;SDS011;73710;49.968;8.338;2024-01-06T17:31:26;7.60;;;2.47;;
83732;SDS011;73710;49.968;8.338;2024-01-06T17:33:51;6.93;;;2.63;;
83732;SDS011;73710;49.968;8.338;2024-01-06T17:36:16;3.80;;;2.23;;
83732;SDS011;73710;49.968;8.338;2024-01-06T17:38:42;4.75;;;2.20;;
83732;SDS011;73710;49.968;8.338;2024-01-06T17:41:07;4.88;;;2.58;;
83732;SDS011;73710;49.968;8.338;2024-01-06T17:43:33;5.40;;;2.50;;
83732;SDS011;73710;49.968;8.338;2024-01-06T17:45:58;4.95;;;2.10;;
83732;SDS011;73710;49.968;8.338;2024-01-06T17:48:24;6.10;;;2.60;;
83732;SDS011;73710;49.968;8.338;2024-01-06T17:50:49;5.75;;;3.22;;
83732;SDS011;73710;49.968;8.338;2024-01-06T17:53:15;5.40;;;2.27;;
83732;SDS011;73710;49.968;8.338;2024-01-06T17:55:40;3.95;;;1.63;;
83732;SDS011;73710;49.968;8.338;2024-01-06T17:58:05;5.85;;;2.38;;
83732;SDS011;73710;49.968;8.338;2024-01-06T18:00:31;16.23;;;3.05;;
83732;SDS011;73710;49.968;8.338;2024-01-06T18:02:57;7.25;;;3.30;;
83732;SDS011;73710;49.968;8.338;2024-01-06T18:05:22;5.00;;;2.90;;
83732;SDS011;73710;49.968;8.338;2024-01-06T18:07:48;4.97;;;2.85;;
83732;SDS011;73710;49.968;8.338;2024-01-06T18:10:13;6.73;;;2.67;;
83732;SDS011;73710;49.968;8.338;2024-01-06T18:12:40;4.72;;;3.08;;
83732;SDS011;73710;49.968;8.338;2024-01-06T18:15:06;4.97;;;2.30;;
83732;SDS011;73710;49.968;8.338;2024-01-06T18:17:32;5.18;;;2.75;;
83732;SDS011;73710;49.968;8.338;2024-01-06T18:20:00;5.88;;;2.88;;
83732;SDS011;73710;49.968;8.338;2024-01-06T18:22:29;2.97;;;1.98;;
83732;SDS011;73710;49.968;8.338;2024-01-06T18:24:54;5.07;;;3.10;;
83732;SDS011;73710;49.968;8.338;2024-01-06T18:27:20;3.85;;;2.28;;
83732;SDS011;73710;49.968;8.338;2024-01-06T18:29:45;4.30;;;2.70;;
83732;SDS011;73710;49.968;8.338;2024-01-06T18:32:10;5.07;;;3.05;;
83732;SDS011;73710;49.968;8.338;2024-01-06T18:34:36;6.43;;;2.65;;
83732;SDS011;73710;49.968;8.338;2024-01-06T18:37:02;6.68;;;2.17;;
83732;SDS011;73710;49.968;8.338;2024-01-06T18:39:28;7.75;;;3.65;;
83732;SDS011;73710;49.968;8.338;2024-01-06T18:41:53;5.23;;;3.13;;
83732;SDS011;73710;49.968;8.338;2024-01-06T18:44:20;7.38;;;4.47;;
83732;SDS011;73710;49.968;8.338;2024-01-06T18:46:45;6.80;;;2.50;;
83732;SDS011;73710;49.968;8.338;2024-01-06T18:49:10;13.52;;;3.67;;
83732;SDS011;73710;49.968;8.338;2024-01-06T18:51:36;5.30;;;2.92;;
83732;SDS011;73710;49.968;8.338;2024-01-06T18:54:06;9.25;;;4.00;;
83732;SDS011;73710;49.968;8.338;2024-01-06T18:56:32;7.07;;;3.78;;
83732;SDS011;73710;49.968;8.338;2024-01-06T18:58:58;4.72;;;2.63;;
83732;SDS011;73710;49.968;8.338;2024-01-06T19:01:25;4.43;;;2.30;;
83732;SDS011;73710;49.968;8.338;2024-01-06T19:03:51;5.88;;;2.42;;
83732;SDS011;73710;49.968;8.338;2024-01-06T19:06:17;6.25;;;3.47;;
83732;SDS011;73710;49.968;8.338;2024-01-06T19:08:42;5.30;;;3.03;;
83732;SDS011;73710;49.968;8.338;2024-01-06T19:11:07;5.78;;;2.63;;
83732;SDS011;73710;49.968;8.338;2024-01-06T19:13:34;5.47;;;3.17;;
83732;SDS011;73710;49.968;8.338;2024-01-06T19:15:59;8.48;;;3.35;;
83732;SDS011;73710;49.968;8.338;2024-01-06T19:18:24;3.28;;;2.17;;
83732;SDS011;73710;49.968;8.338;2024-01-06T19:20:50;7.40;;;3.00;;
83732;SDS011;73710;49.968;8.338;2024-01-06T19:23:15;5.22;;;3.72;;
83732;SDS011;73710;49.968;8.338;2024-01-06T19:25:46;6.93;;;2.63;;
83732;SDS011;73710;49.968;8.338;2024-01-06T19:28:12;6.68;;;2.05;;
83732;SDS011;73710;49.968;8.338;2024-01-06T19:30:37;7.50;;;3.47;;
83732;SDS011;73710;49.968;8.338;2024-01-06T19:33:03;6.15;;;2.50;;
83732;SDS011;73710;49.968;8.338;2024-01-06T19:35:30;4.15;;;2.30;;
83732;SDS011;73710;49.968;8.338;2024-01-06T19:37:56;3.67;;;2.00;;
83732;SDS011;73710;49.968;8.338;2024-01-06T19:40:22;5.60;;;2.47;;
83732;SDS011;73710;49.968;8.338;2024-01-06T19:42:47;4.30;;;1.85;;
83732;SDS011;73710;49.968;8.338;2024-01-06T19:45:16;5.32;;;2.90;;
83732;SDS011;73710;49.968;8.338;2024-01-06T19:47:42;4.72;;;2.92;;
83732;SDS011;73710;49.968;8.338;2024-01-06T19:50:08;7.03;;;2.80;;
83732;SDS011;73710;49.968;8.338;2024-01-06T19:52:33;6.85;;;2.80;;